Time;durP1;ratioP1;P1;durP2;ratioP2;P2;SDS_P1;SDS_P2;PMS_P1;PMS_P2;Temp;Humidity;BMP_temperature;BMP_pressure;BME280_temperature;BME280_humidity;BME280_pressure;Samples;Min_cycle;Max_cycle;Signal;HPM_P1;HPM_P2
2024/03/04 00:01:32;;;;;;;10.10;6.00;;;;;;;2.12;100.00;100855.77;108043;1257;71418;-67
2024/03/04 00:04:00;;;;;;;9.50;5.80;;;;;;;2.12;100.00;100853.45;108047;1259;61116;-66
2024/03/04 00:06:28;;;;;;;10.10;5.40;;;;;;;2.11;100.00;100854.14;108006;1256;61204;-67
2024/03/04 00:08:56;;;;;;;9.20;5.90;;;;;;;2.09;100.00;100857.73;108056;1255;73397;-66
2024/03/04 00:11:24;;;;;;;13.10;6.40;;;;;;;2.08;100.00;100857.48;108057;1257;71548;-66
2024/03/04 00:13:51;;;;;;;9.70;6.00;;;;;;;2.09;100.00;100859.96;108122;1256;72699;-66
2024/03/04 00:16:19;;;;;;;9.30;5.60;;;;;;;2.11;100.00;100865.34;108006;1260;59221;-67
2024/03/04 00:18:47;;;;;;;11.90;5.50;;;;;;;2.11;100.00;100864.64;108049;1257;61123;-67
2024/03/04 00:21:15;;;;;;;9.60;6.10;;;;;;;2.11;100.00;100860.58;107986;1257;73786;-67
2024/03/04 00:23:44;;;;;;;10.90;6.00;;;;;;;2.13;100.00;100858.84;108033;1257;71393;-66
2024/03/04 00:26:12;;;;;;;12.20;6.50;;;;;;;2.12;100.00;100854.42;108025;1257;71819;-66
2024/03/04 00:28:40;;;;;;;11.30;6.10;;;;;;;2.10;100.00;100857.20;107751;1256;61189;-67
2024/03/04 00:31:08;;;;;;;11.60;6.00;;;;;;;2.09;100.00;100857.00;108060;1257;61087;-68
2024/03/04 00:33:36;;;;;;;10.50;6.20;;;;;;;2.09;100.00;100854.41;107991;1256;74581;-67
2024/03/04 00:36:06;;;;;;;11.20;6.20;;;;;;;2.08;100.00;100849.63;108050;1254;71832;-66
2024/03/04 00:38:33;;;;;;;10.70;6.80;;;;;;;2.06;100.00;100847.98;108144;1259;72713;-67
2024/03/04 00:41:01;;;;;;;10.20;6.20;;;;;;;2.03;100.00;100848.48;108178;1254;61205;-68
2024/03/04 00:43:29;;;;;;;11.10;6.20;;;;;;;2.00;100.00;100847.75;108157;1254;61246;-66
2024/03/04 00:45:56;;;;;;;10.20;6.40;;;;;;;1.99;100.00;100851.06;108119;1254;72354;-66
2024/03/04 00:48:24;;;;;;;11.50;6.20;;;;;;;2.02;100.00;100851.08;108158;1254;71463;-67
2024/03/04 00:50:52;;;;;;;9.20;5.90;;;;;;;2.03;100.00;100849.30;108078;1257;72742;-66
2024/03/04 00:53:20;;;;;;;11.40;6.60;;;;;;;2.04;100.00;100845.94;108060;1256;61253;-66
2024/03/04 00:55:49;;;;;;;10.80;6.30;;;;;;;2.04;100.00;100842.94;108208;1254;60980;-68
2024/03/04 00:58:17;;;;;;;9.70;6.70;;;;;;;2.03;100.00;100847.64;108133;1254;74609;-66
2024/03/04 01:00:45;;;;;;;11.30;5.90;;;;;;;2.02;100.00;100850.08;108138;1254;72695;-66
2024/03/04 01:03:12;;;;;;;10.40;6.70;;;;;;;2.00;100.00;100846.94;108077;1254;71390;-66
2024/03/04 01:05:40;;;;;;;10.30;6.20;;;;;;;1.98;100.00;100849.56;108103;1257;61116;-67
2024/03/04 01:08:09;;;;;;;11.20;6.70;;;;;;;1.95;100.00;100846.87;108139;1257;61147;-66
2024/03/04 01:10:37;;;;;;;11.90;6.40;;;;;;;1.91;100.00;100849.15;108102;1254;74733;-68
2024/03/04 01:13:05;;;;;;;9.10;6.10;;;;;;;1.86;100.00;100842.31;108053;1254;71532;-67
2024/03/04 01:15:35;;;;;;;11.60;6.50;;;;;;;1.84;100.00;100840.21;108101;1254;70123;-65
2024/03/04 01:18:04;;;;;;;12.40;7.00;;;;;;;1.81;100.00;100845.29;108053;1257;60088;-65
2024/03/04 01:20:32;;;;;;;12.10;6.50;;;;;;;1.78;100.00;100841.96;108100;1254;61724;-66
2024/03/04 01:23:00;;;;;;;10.40;6.00;;;;;;;1.78;100.00;100845.63;108112;1260;74657;-66
2024/03/04 01:25:28;;;;;;;11.00;6.70;;;;;;;1.78;100.00;100841.42;108180;1254;71761;-66
2024/03/04 01:27:56;;;;;;;11.00;6.60;;;;;;;1.78;100.00;100844.29;108153;1259;72694;-67
2024/03/04 01:30:27;;;;;;;11.80;7.10;;;;;;;1.78;100.00;100839.73;108151;1259;61215;-67
2024/03/04 01:32:56;;;;;;;13.30;6.60;;;;;;;1.73;100.00;100841.24;108133;1254;61206;-67
2024/03/04 01:35:24;;;;;;;11.20;6.90;;;;;;;1.68;100.00;100847.23;108108;1254;73344;-67
2024/03/04 01:37:53;;;;;;;12.00;7.10;;;;;;;1.66;100.00;100851.92;108156;1255;71711;-67
2024/03/04 01:40:21;;;;;;;10.40;6.90;;;;;;;1.67;100.00;100851.29;108078;1260;71484;-66
2024/03/04 01:42:49;;;;;;;10.70;6.80;;;;;;;1.69;100.00;100850.82;108102;1255;61012;-66
2024/03/04 01:45:25;;;;;;;11.70;7.20;;;;;;;1.71;100.00;100852.00;108128;1254;61169;-66
2024/03/04 01:48:11;;;;;;;14.10;7.00;;;;;;;1.75;100.00;100854.97;108146;1254;73326;-66
2024/03/04 01:50:41;;;;;;;12.20;7.30;;;;;;;1.82;100.00;100857.67;108124;1254;71552;-69
2024/03/04 01:53:08;;;;;;;12.60;7.60;;;;;;;1.88;100.00;100855.81;108066;1254;71527;-67
2024/03/04 01:55:38;;;;;;;9.80;6.90;;;;;;;1.91;100.00;100853.19;108026;1261;61087;-67
2024/03/04 01:58:06;;;;;;;12.70;6.70;;;;;;;1.89;100.00;100857.28;108115;1254;60585;-67
2024/03/04 02:00:34;;;;;;;12.00;6.80;;;;;;;1.84;100.00;100858.63;108023;1254;73735;-68
2024/03/04 02:03:03;;;;;;;11.80;6.60;;;;;;;1.81;100.00;100860.58;107982;1260;72712;-67
2024/03/04 02:05:31;;;;;;;10.90;6.30;;;;;;;1.78;100.00;100861.79;108082;1256;71841;-66
2024/03/04 02:07:59;;;;;;;11.90;6.60;;;;;;;1.76;100.00;100856.66;107952;1254;63466;-66
2024/03/04 02:10:27;;;;;;;10.50;6.10;;;;;;;1.74;100.00;100858.59;108223;1254;61176;-66
2024/03/04 02:12:56;;;;;;;10.40;6.80;;;;;;;1.71;100.00;100858.81;108084;1254;74579;-66
2024/03/04 02:15:24;;;;;;;11.70;6.10;;;;;;;1.69;100.00;100857.55;108161;1254;72737;-66
2024/03/04 02:17:53;;;;;;;11.60;7.40;;;;;;;1.67;100.00;100858.22;108085;1255;71211;-66
2024/03/04 02:20:21;;;;;;;12.70;6.70;;;;;;;1.68;100.00;100858.30;108087;1255;61241;-66
2024/03/04 02:22:49;;;;;;;11.60;6.20;;;;;;;1.69;100.00;100855.77;108032;1255;60961;-66
2024/03/04 02:25:19;;;;;;;10.80;6.70;;;;;;;1.70;100.00;100857.59;108112;1259;74750;-65
2024/03/04 02:27:46;;;;;;;10.50;6.10;;;;;;;1.70;100.00;100858.72;108043;1256;72882;-65
2024/03/04 02:30:15;;;;;;;12.20;7.30;;;;;;;1.70;100.00;100859.61;108111;1254;71039;-65
2024/03/04 02:32:42;;;;;;;10.80;6.40;;;;;;;1.70;100.00;100861.20;108087;1255;61231;-65
2024/03/04 02:35:10;;;;;;;12.90;7.10;;;;;;;1.68;100.00;100866.20;107999;1259;61218;-66
2024/03/04 02:37:38;;;;;;;14.70;7.60;;;;;;;1.68;100.00;100869.40;108018;1257;74708;-66
2024/03/04 02:40:07;;;;;;;10.70;6.60;;;;;;;1.71;100.00;100873.11;108030;1259;71451;-65
2024/03/04 02:42:36;;;;;;;11.60;6.90;;;;;;;1.73;100.00;100871.63;108002;1255;71053;-67
2024/03/04 02:45:05;;;;;;;12.50;6.90;;;;;;;1.75;100.00;100872.52;108146;1254;61353;-66
2024/03/04 02:47:35;;;;;;;11.20;7.00;;;;;;;1.77;100.00;100872.50;108114;1254;61228;-67
2024/03/04 02:50:07;;;;;;;12.80;7.20;;;;;;;1.76;100.00;100875.38;108078;1254;73346;-66
2024/03/04 02:52:35;;;;;;;11.00;7.00;;;;;;;1.77;100.00;100878.10;108083;1254;72746;-66
2024/03/04 02:55:04;;;;;;;11.20;6.80;;;;;;;1.78;100.00;100875.61;108097;1259;72567;-67
2024/03/04 02:57:33;;;;;;;12.30;7.10;;;;;;;1.79;100.00;100874.64;108067;1254;60991;-66
2024/03/04 03:00:00;;;;;;;11.80;6.60;;;;;;;1.79;100.00;100873.50;108052;1259;61122;-67
2024/03/04 03:02:28;;;;;;;12.00;7.60;;;;;;;1.78;100.00;100875.00;108070;1259;74682;-67
2024/03/04 03:04:56;;;;;;;12.50;7.20;;;;;;;1.79;100.00;100874.84;108128;1254;71775;-65
2024/03/04 03:07:24;;;;;;;13.00;7.00;;;;;;;1.81;100.00;100874.92;108087;1259;71389;-66
2024/03/04 03:09:51;;;;;;;11.70;6.60;;;;;;;1.83;100.00;100874.74;108129;1256;61119;-66
2024/03/04 03:12:19;;;;;;;11.50;7.20;;;;;;;1.83;100.00;100872.60;108026;1254;61000;-66
2024/03/04 03:14:47;;;;;;;13.40;6.90;;;;;;;1.85;100.00;100868.69;107986;1255;74739;-67
2024/03/04 03:17:15;;;;;;;10.40;6.40;;;;;;;1.86;100.00;100874.27;108088;1254;71428;-66
2024/03/04 03:19:44;;;;;;;10.80;7.30;;;;;;;1.86;100.00;100875.86;108070;1254;71460;-67
2024/03/04 03:22:12;;;;;;;11.80;7.00;;;;;;;1.86;100.00;100879.42;108085;1256;61207;-66
2024/03/04 03:24:43;;;;;;;13.20;8.00;;;;;;;1.85;100.00;100883.27;108083;1255;61230;-66
2024/03/04 03:27:11;;;;;;;14.30;7.80;;;;;;;1.86;100.00;100884.70;108044;1254;74070;-66
2024/03/04 03:29:39;;;;;;;11.80;8.10;;;;;;;1.89;100.00;100885.55;108022;1254;72796;-66
2024/03/04 03:32:07;;;;;;;15.20;7.80;;;;;;;1.89;100.00;100880.42;108099;1254;71472;-66
2024/03/04 03:34:35;;;;;;;12.90;8.00;;;;;;;1.87;100.00;100883.52;108087;1257;61106;-66
2024/03/04 03:37:03;;;;;;;14.20;8.70;;;;;;;1.85;100.00;100885.70;108114;1254;61265;-67
2024/03/04 03:39:31;;;;;;;13.10;7.20;;;;;;;1.83;100.00;100886.95;108097;1254;73510;-67
2024/03/04 03:41:59;;;;;;;14.30;8.20;;;;;;;1.82;100.00;100881.66;108057;1254;71678;-67
2024/03/04 03:44:27;;;;;;;13.60;7.30;;;;;;;1.82;100.00;100883.13;108068;1257;71375;-67
2024/03/04 03:46:55;;;;;;;14.00;8.00;;;;;;;1.78;100.00;100882.77;108100;1254;62267;-66
2024/03/04 03:49:23;;;;;;;12.90;8.20;;;;;;;1.74;100.00;100882.37;108137;1254;61198;-67
2024/03/04 03:51:50;;;;;;;14.10;8.00;;;;;;;1.74;100.00;100882.89;108082;1254;74108;-66
2024/03/04 03:54:18;;;;;;;14.50;8.30;;;;;;;1.75;100.00;100884.88;108137;1254;70971;-67
2024/03/04 03:56:46;;;;;;;13.60;8.00;;;;;;;1.77;100.00;100887.78;108096;1258;71490;-66
2024/03/04 03:59:14;;;;;;;12.20;7.80;;;;;;;1.78;100.00;100888.85;108074;1254;61236;-66
2024/03/04 04:01:41;;;;;;;15.20;8.50;;;;;;;1.79;100.00;100885.94;108100;1254;61074;-66
2024/03/04 04:04:10;;;;;;;11.00;7.30;;;;;;;1.76;100.00;100884.09;108134;1254;73806;-66
2024/03/04 04:06:37;;;;;;;18.20;8.50;;;;;;;1.70;100.00;100885.66;108082;1260;71403;-67
2024/03/04 04:09:05;;;;;;;14.10;8.70;;;;;;;1.66;100.00;100892.31;108097;1257;71422;-66
2024/03/04 04:11:33;;;;;;;13.80;8.50;;;;;;;1.62;100.00;100894.27;108007;1255;62066;-66
2024/03/04 04:14:00;;;;;;;14.90;8.40;;;;;;;1.61;100.00;100893.97;108052;1254;59237;-66
2024/03/04 04:16:29;;;;;;;12.20;7.90;;;;;;;1.55;100.00;100892.74;108097;1254;73369;-67
2024/03/04 04:18:57;;;;;;;13.00;8.10;;;;;;;1.48;100.00;100897.31;108040;1255;71427;-67
2024/03/04 04:21:26;;;;;;;13.40;8.10;;;;;;;1.40;100.00;100897.35;107986;1254;71681;-66
2024/03/04 04:23:54;;;;;;;12.60;8.50;;;;;;;1.33;100.00;100897.89;108045;1254;61212;-66
2024/03/04 04:26:23;;;;;;;13.40;7.50;;;;;;;1.28;100.00;100901.52;108120;1254;61071;-66
2024/03/04 04:28:51;;;;;;;15.80;9.00;;;;;;;1.21;100.00;100902.59;108106;1254;74642;-66
2024/03/04 04:31:22;;;;;;;14.20;8.30;;;;;;;1.14;100.00;100903.16;108046;1257;71380;-68
2024/03/04 04:33:50;;;;;;;12.70;8.20;;;;;;;1.09;100.00;100906.92;108079;1257;72680;-66
2024/03/04 04:36:18;;;;;;;12.90;8.30;;;;;;;1.06;100.00;100910.52;108003;1255;61225;-66
2024/03/04 04:38:46;;;;;;;13.20;7.40;;;;;;;1.05;100.00;100913.55;107996;1260;61211;-66
2024/03/04 04:41:14;;;;;;;12.30;7.80;;;;;;;1.03;100.00;100915.19;107973;1256;73395;-66
2024/03/04 04:43:42;;;;;;;14.20;7.70;;;;;;;0.98;100.00;100917.89;108032;1255;70599;-65
2024/03/04 04:46:10;;;;;;;12.90;7.70;;;;;;;0.95;100.00;100917.59;108084;1254;71501;-66
2024/03/04 04:48:38;;;;;;;15.80;8.20;;;;;;;0.92;100.00;100918.06;108039;1254;61244;-65
2024/03/04 04:51:06;;;;;;;12.90;8.00;;;;;;;0.91;100.00;100920.46;108060;1254;60041;-67
2024/03/04 04:53:33;;;;;;;14.40;8.40;;;;;;;0.90;100.00;100917.63;108125;1254;73437;-65
2024/03/04 04:56:01;;;;;;;13.80;7.90;;;;;;;0.91;100.00;100917.48;108074;1254;71914;-63
2024/03/04 04:58:29;;;;;;;13.20;8.50;;;;;;;0.94;100.00;100920.91;108055;1260;70167;-67
2024/03/04 05:00:57;;;;;;;14.40;8.30;;;;;;;0.99;100.00;100916.80;108051;1255;61256;-65
2024/03/04 05:03:25;;;;;;;12.10;7.80;;;;;;;1.05;100.00;100916.88;108103;1254;61237;-67
2024/03/04 05:06:14;;;;;;;15.70;8.10;;;;;;;1.11;100.00;100917.70;108068;1254;74662;-67
2024/03/04 05:08:42;;;;;;;14.60;8.50;;;;;;;1.17;100.00;100908.91;108072;1254;70746;-66
2024/03/04 05:11:10;;;;;;;12.70;8.10;;;;;;;1.26;100.00;100911.95;108220;1254;71397;-65
2024/03/04 05:13:37;;;;;;;14.00;8.80;;;;;;;1.36;100.00;100912.85;108115;1257;61307;-67
2024/03/04 05:16:06;;;;;;;12.00;7.60;;;;;;;1.46;100.00;100913.23;108155;1254;61227;-65
2024/03/04 05:18:35;;;;;;;13.60;8.00;;;;;;;1.54;100.00;100916.67;108014;1254;73373;-67
2024/03/04 05:21:03;;;;;;;15.90;8.10;;;;;;;1.64;100.00;100913.27;108127;1254;72946;-66
2024/03/04 05:23:31;;;;;;;13.40;8.10;;;;;;;1.74;100.00;100913.36;108045;1256;71441;-66
2024/03/04 05:25:59;;;;;;;12.40;8.00;;;;;;;1.83;100.00;100911.70;108023;1255;61077;-66
2024/03/04 05:28:27;;;;;;;11.70;7.70;;;;;;;1.95;100.00;100913.45;108021;1257;59933;-66
2024/03/04 05:30:57;;;;;;;12.10;8.50;;;;;;;2.06;100.00;100912.92;108091;1257;74719;-65
2024/03/04 05:33:28;;;;;;;14.00;8.40;;;;;;;2.17;100.00;100912.23;107961;1258;72810;-66
2024/03/04 05:36:00;;;;;;;15.40;9.30;;;;;;;2.27;100.00;100909.57;108020;1256;72680;-65
2024/03/04 05:38:28;;;;;;;14.00;8.90;;;;;;;2.36;100.00;100909.51;107863;1254;61224;-68
2024/03/04 05:40:56;;;;;;;20.20;9.90;;;;;;;2.43;100.00;100906.83;108057;1254;60145;-66
2024/03/04 05:43:23;;;;;;;14.60;8.50;;;;;;;2.50;100.00;100910.69;108068;1254;74675;-67
2024/03/04 05:45:52;;;;;;;17.00;10.20;;;;;;;2.57;100.00;100910.10;108190;1254;72059;-66
2024/03/04 05:48:20;;;;;;;13.80;9.50;;;;;;;2.68;100.00;100908.29;108129;1255;71408;-67
2024/03/04 05:50:48;;;;;;;15.40;9.80;;;;;;;2.77;100.00;100907.11;108094;1259;61231;-67
2024/03/04 05:53:20;;;;;;;15.80;9.00;;;;;;;2.83;100.00;100914.77;108125;1254;61088;-69
2024/03/04 05:55:58;;;;;;;15.00;10.10;;;;;;;2.87;100.00;100919.00;107834;1257;74754;-67
2024/03/04 05:58:59;;;;;;;16.70;9.90;;;;;;;2.95;100.00;100923.98;108040;1254;72865;-67
2024/03/04 06:01:27;;;;;;;18.00;10.60;;;;;;;3.04;100.00;100921.66;107810;1257;72460;-67
2024/03/04 06:03:55;;;;;;;18.50;10.50;;;;;;;3.12;100.00;100926.19;108084;1254;63089;-67
2024/03/04 06:06:22;;;;;;;17.00;9.90;;;;;;;3.15;100.00;100925.71;108154;1254;62638;-67
2024/03/04 06:08:50;;;;;;;16.50;10.20;;;;;;;3.19;100.00;100931.24;108066;1254;73539;-67
2024/03/04 06:11:18;;;;;;;16.40;10.60;;;;;;;3.21;100.00;100931.94;108133;1254;73659;-67
2024/03/04 06:13:46;;;;;;;17.70;11.10;;;;;;;3.25;100.00;100932.73;108108;1259;71247;-67
2024/03/04 06:16:14;;;;;;;20.20;11.10;;;;;;;3.30;100.00;100930.38;108092;1254;61208;-66
2024/03/04 06:18:42;;;;;;;16.20;10.90;;;;;;;3.38;100.00;100926.06;108118;1254;61452;-67
2024/03/04 06:21:09;;;;;;;18.10;10.60;;;;;;;3.47;100.00;100923.84;108107;1254;74578;-66
2024/03/04 06:23:37;;;;;;;15.20;10.90;;;;;;;3.56;100.00;100926.09;108113;1257;71345;-66
2024/03/04 06:26:09;;;;;;;16.80;11.30;;;;;;;3.61;100.00;100929.55;108125;1256;71132;-66
2024/03/04 06:28:38;;;;;;;17.70;10.00;;;;;;;3.68;100.00;100926.23;107959;1254;60488;-68
2024/03/04 06:31:06;;;;;;;20.80;12.00;;;;;;;3.76;100.00;100925.81;108018;1254;61144;-66
2024/03/04 06:33:36;;;;;;;18.80;11.70;;;;;;;3.88;100.00;100928.70;108140;1254;73374;-68
2024/03/04 06:36:19;;;;;;;17.70;11.50;;;;;;;3.99;100.00;100929.48;108186;1254;71209;-68
2024/03/04 06:38:48;;;;;;;21.20;13.20;;;;;;;4.10;100.00;100926.78;108085;1259;71455;-68
2024/03/04 06:41:16;;;;;;;22.30;13.90;;;;;;;4.22;100.00;100926.25;108104;1254;61048;-69
2024/03/04 06:43:46;;;;;;;23.40;13.90;;;;;;;4.32;100.00;100928.26;108125;1254;60431;-69
2024/03/04 06:46:14;;;;;;;22.70;13.50;;;;;;;4.38;100.00;100927.92;108244;1254;73334;-67
2024/03/04 06:48:42;;;;;;;21.70;13.50;;;;;;;4.46;100.00;100925.70;108065;1256;71637;-69
2024/03/04 06:51:10;;;;;;;22.80;14.10;;;;;;;4.52;100.00;100924.66;108074;1254;72705;-68
2024/03/04 06:53:38;;;;;;;21.60;12.90;;;;;;;4.53;100.00;100922.27;108053;1254;61084;-67
2024/03/04 06:56:09;;;;;;;18.40;12.10;;;;;;;4.53;100.00;100923.83;108082;1254;61109;-67
2024/03/04 06:58:37;;;;;;;20.00;12.50;;;;;;;4.49;100.00;100924.55;108073;1256;73451;-67
2024/03/04 07:01:05;;;;;;;20.80;12.90;;;;;;;4.43;100.00;100922.70;107984;1254;71426;-68
2024/03/04 07:03:33;;;;;;;20.50;12.60;;;;;;;4.41;100.00;100921.02;108131;1260;73068;-68
2024/03/04 07:06:00;;;;;;;21.30;12.90;;;;;;;4.41;99.18;100917.45;108131;1254;59715;-68
2024/03/04 07:08:28;;;;;;;19.40;12.20;;;;;;;4.36;98.16;100916.81;108125;1254;59236;-68
2024/03/04 07:11:00;;;;;;;19.10;13.00;;;;;;;4.33;97.92;100915.27;108124;1254;76815;-68
2024/03/04 07:13:28;;;;;;;18.10;11.20;;;;;;;4.32;97.87;100913.13;108165;1254;72140;-69
2024/03/04 07:15:56;;;;;;;17.10;12.00;;;;;;;4.34;97.79;100913.77;108153;1254;73506;-69
2024/03/04 07:18:31;;;;;;;19.20;12.60;;;;;;;4.40;98.33;100910.13;108140;1256;61299;-67
2024/03/04 07:20:59;;;;;;;20.60;12.30;;;;;;;4.49;97.79;100909.79;108041;1254;61074;-68
2024/03/04 07:23:30;;;;;;;20.90;12.60;;;;;;;4.59;97.47;100911.39;108165;1254;74608;-68
2024/03/04 07:25:57;;;;;;;17.00;12.80;;;;;;;4.70;96.99;100908.95;108097;1254;75030;-68
2024/03/04 07:28:25;;;;;;;18.50;12.20;;;;;;;4.86;96.51;100906.80;108320;1254;73863;-69
2024/03/04 07:30:53;;;;;;;18.80;12.10;;;;;;;4.97;94.67;100909.00;108139;1254;61673;-69
2024/03/04 07:33:21;;;;;;;19.40;13.60;;;;;;;5.04;92.87;100910.83;108138;1254;62248;-68
2024/03/04 07:35:49;;;;;;;20.90;13.00;;;;;;;5.08;91.04;100909.23;108153;1254;74436;-68
2024/03/04 07:38:17;;;;;;;20.70;13.10;;;;;;;5.09;90.06;100911.38;108145;1254;74703;-66
2024/03/04 07:40:45;;;;;;;20.10;12.80;;;;;;;5.17;90.42;100914.80;108169;1254;72971;-67
2024/03/04 07:43:12;;;;;;;19.90;13.10;;;;;;;5.29;90.48;100907.71;108095;1254;60172;-67
2024/03/04 07:45:40;;;;;;;19.10;13.10;;;;;;;5.42;89.91;100908.41;108192;1254;61134;-67
2024/03/04 07:48:08;;;;;;;23.10;13.80;;;;;;;5.55;89.36;100908.58;108085;1254;73348;-67
2024/03/04 07:50:36;;;;;;;17.90;12.00;;;;;;;5.67;88.34;100908.11;108102;1254;71429;-67
2024/03/04 07:53:04;;;;;;;20.00;13.00;;;;;;;5.79;87.34;100902.06;108116;1257;71679;-67
2024/03/04 07:55:32;;;;;;;16.50;12.10;;;;;;;5.84;85.37;100899.86;108156;1254;61119;-67
2024/03/04 07:57:59;;;;;;;19.10;13.10;;;;;;;5.91;84.77;100895.73;108047;1254;62192;-68
2024/03/04 08:00:27;;;;;;;23.30;13.40;;;;;;;5.99;83.84;100896.58;108037;1257;74054;-67
2024/03/04 08:02:55;;;;;;;19.30;12.60;;;;;;;6.03;82.78;100893.81;108144;1254;75015;-67
2024/03/04 08:05:23;;;;;;;20.60;15.20;;;;;;;6.07;82.02;100891.64;108124;1254;73039;-67
2024/03/04 08:07:51;;;;;;;19.80;13.20;;;;;;;6.08;81.21;100888.98;108138;1254;61441;-66
2024/03/04 08:10:19;;;;;;;22.10;13.90;;;;;;;6.13;81.26;100886.20;108217;1254;61080;-67
2024/03/04 08:12:48;;;;;;;21.00;13.50;;;;;;;6.21;80.84;100886.08;108177;1254;74807;-68
2024/03/04 08:15:16;;;;;;;20.70;13.70;;;;;;;6.34;80.79;100881.51;108162;1254;70691;-68
2024/03/04 08:17:44;;;;;;;20.10;14.00;;;;;;;6.49;80.49;100883.41;108157;1256;72851;-66
2024/03/04 08:20:23;;;;;;;20.50;13.70;;;;;;;6.64;79.84;100878.59;108144;1254;61852;-67
2024/03/04 08:23:02;;;;;;;19.90;14.20;;;;;;;6.81;79.49;100878.02;108133;1254;61167;-68
2024/03/04 08:25:30;;;;;;;19.80;12.60;;;;;;;6.99;78.99;100875.77;108129;1254;76015;-67
2024/03/04 08:28:00;;;;;;;15.70;11.90;;;;;;;7.19;78.42;100876.40;108145;1254;74809;-68
2024/03/04 08:30:28;;;;;;;20.50;13.50;;;;;;;7.32;76.42;100871.75;108082;1254;73624;-67
2024/03/04 08:32:56;;;;;;;20.80;13.50;;;;;;;7.40;75.05;100867.69;108100;1254;61109;-67
2024/03/04 08:35:23;;;;;;;17.60;12.30;;;;;;;7.49;74.47;100869.20;108109;1254;61137;-67
2024/03/04 08:37:51;;;;;;;20.10;13.80;;;;;;;7.62;73.81;100870.26;108109;1254;76905;-67
2024/03/04 08:40:19;;;;;;;18.00;12.60;;;;;;;7.70;72.93;100871.02;108123;1254;71987;-67
2024/03/04 08:42:47;;;;;;;17.70;13.10;;;;;;;7.75;72.05;100871.31;108056;1254;72800;-68
2024/03/04 08:45:18;;;;;;;21.40;14.70;;;;;;;7.84;71.90;100870.34;108047;1254;61092;-67
2024/03/04 08:47:46;;;;;;;22.80;14.80;;;;;;;7.91;71.04;100865.77;108059;1254;62178;-67
2024/03/04 08:50:14;;;;;;;18.80;13.60;;;;;;;7.96;70.70;100865.56;108132;1254;75368;-67
2024/03/04 08:52:41;;;;;;;20.70;13.60;;;;;;;8.01;69.88;100861.74;108089;1254;75017;-66
2024/03/04 08:55:09;;;;;;;24.50;14.80;;;;;;;8.03;68.94;100861.83;108137;1254;74875;-68
2024/03/04 08:57:37;;;;;;;20.30;14.60;;;;;;;8.03;68.29;100865.99;108057;1254;61598;-68
2024/03/04 09:00:07;;;;;;;17.90;12.90;;;;;;;8.04;68.16;100863.77;108103;1259;60439;-68
2024/03/04 09:02:34;;;;;;;17.70;12.70;;;;;;;8.11;68.43;100860.98;108154;1254;73716;-67
2024/03/04 09:05:04;;;;;;;19.30;14.00;;;;;;;8.23;68.30;100862.27;108059;1254;72692;-66
2024/03/04 09:07:35;;;;;;;16.00;12.20;;;;;;;8.36;67.78;100862.50;107953;1256;74889;-67
2024/03/04 09:10:07;;;;;;;19.50;13.60;;;;;;;8.47;67.30;100863.70;108077;1257;61225;-67
2024/03/04 09:12:35;;;;;;;19.00;13.10;;;;;;;8.58;67.24;100862.48;108029;1254;62324;-66
2024/03/04 09:15:03;;;;;;;20.50;13.80;;;;;;;8.71;66.99;100860.98;108062;1254;74763;-68
2024/03/04 09:17:31;;;;;;;18.00;12.50;;;;;;;8.87;66.48;100862.09;108113;1254;73941;-67
2024/03/04 09:20:00;;;;;;;19.40;12.60;;;;;;;9.00;65.16;100861.85;108108;1254;74881;-67
2024/03/04 09:22:28;;;;;;;18.30;12.20;;;;;;;9.12;63.94;100857.10;108093;1254;61098;-67
2024/03/04 09:24:56;;;;;;;17.50;13.20;;;;;;;9.14;63.07;100856.35;108088;1254;62185;-67
2024/03/04 09:27:24;;;;;;;18.70;13.20;;;;;;;9.12;63.23;100853.33;108124;1259;73733;-67
2024/03/04 09:29:52;;;;;;;17.20;12.30;;;;;;;9.22;63.90;100856.36;108127;1254;74606;-67
2024/03/04 09:32:20;;;;;;;18.40;11.80;;;;;;;9.35;63.52;100849.73;108097;1255;73300;-68
2024/03/04 09:34:47;;;;;;;18.90;13.00;;;;;;;9.49;62.45;100844.23;107970;1254;61401;-67
2024/03/04 09:37:15;;;;;;;15.80;10.90;;;;;;;9.61;61.48;100843.61;108143;1254;62435;-67
2024/03/04 09:39:43;;;;;;;15.50;11.80;;;;;;;9.72;60.63;100839.92;108078;1254;73851;-68
2024/03/04 09:42:11;;;;;;;16.30;12.40;;;;;;;9.75;60.02;100841.81;107936;1256;74942;-67
2024/03/04 09:44:40;;;;;;;15.70;11.80;;;;;;;9.74;59.96;100838.75;107783;1256;72198;-67
2024/03/04 09:47:08;;;;;;;18.40;13.40;;;;;;;9.73;59.52;100842.15;108065;1254;60946;-68
2024/03/04 09:49:36;;;;;;;16.70;12.50;;;;;;;9.73;59.57;100839.91;108152;1254;62278;-68
2024/03/04 09:52:05;;;;;;;16.20;11.10;;;;;;;9.80;59.78;100838.52;108065;1254;76924;-67
2024/03/04 09:54:35;;;;;;;14.30;9.80;;;;;;;9.97;59.13;100834.02;108158;1254;71648;-68
2024/03/04 09:57:04;;;;;;;17.20;12.80;;;;;;;10.13;57.52;100834.86;107929;1257;74022;-68
2024/03/04 09:59:32;;;;;;;16.80;10.80;;;;;;;10.15;57.58;100833.28;108148;1254;61806;-69
2024/03/04 10:02:05;;;;;;;14.30;9.90;;;;;;;10.17;57.04;100827.87;108110;1257;61221;-68
2024/03/04 10:04:34;;;;;;;15.50;9.70;;;;;;;10.28;56.23;100829.53;108080;1254;76917;-68
2024/03/04 10:07:02;;;;;;;13.40;9.80;;;;;;;10.39;55.09;100826.64;108015;1254;72306;-67
2024/03/04 10:09:30;;;;;;;14.70;10.30;;;;;;;10.45;53.99;100826.23;108134;1259;74520;-69
2024/03/04 10:11:58;;;;;;;12.80;9.70;;;;;;;10.53;53.97;100823.42;108119;1254;61353;-68
2024/03/04 10:14:26;;;;;;;14.00;9.10;;;;;;;10.64;53.20;100816.33;108101;1254;60384;-69
2024/03/04 10:16:54;;;;;;;13.80;9.70;;;;;;;10.69;52.43;100820.29;108171;1254;75026;-67
2024/03/04 10:19:22;;;;;;;15.10;9.60;;;;;;;10.70;52.35;100820.63;108041;1254;74043;-67
2024/03/04 10:21:50;;;;;;;11.80;8.70;;;;;;;10.75;52.35;100821.79;108079;1254;74065;-66
2024/03/04 10:24:18;;;;;;;11.40;8.50;;;;;;;10.85;51.85;100823.45;108046;1254;61201;-68
2024/03/04 10:26:46;;;;;;;12.30;8.90;;;;;;;10.95;51.55;100820.81;107952;1253;61241;-67
2024/03/04 10:29:18;;;;;;;11.90;8.70;;;;;;;11.04;50.86;100824.06;93015;1254;10001826;-67
2024/03/04 10:31:50;;;;;;;11.40;8.70;;;;;;;11.10;50.30;100822.50;109170;1254;59234;-67
2024/03/04 10:34:20;;;;;;;13.00;8.70;;;;;;;11.14;50.23;100817.41;108350;1254;75038;-68
2024/03/04 10:36:48;;;;;;;12.50;8.60;;;;;;;11.17;49.68;100818.51;107900;1254;72939;-67
2024/03/04 10:39:29;;;;;;;12.30;8.60;;;;;;;11.21;49.91;100816.39;108063;1254;71452;-68
2024/03/04 10:41:57;;;;;;;14.60;9.00;;;;;;;11.28;49.70;100812.82;107877;1255;61292;-68
2024/03/04 10:44:29;;;;;;;12.30;8.80;;;;;;;11.37;49.41;100806.91;107831;1254;62301;-68
2024/03/04 10:46:58;;;;;;;12.40;9.00;;;;;;;11.43;48.93;100806.74;107896;1259;76895;-68
2024/03/04 10:49:30;;;;;;;11.30;8.40;;;;;;;11.50;48.93;100802.20;107796;1254;73308;-67
2024/03/04 10:51:58;;;;;;;12.00;8.80;;;;;;;11.55;48.78;100797.89;108411;1254;74806;-66
2024/03/04 10:54:41;;;;;;;13.70;8.50;;;;;;;11.63;48.84;100795.64;107731;1254;60518;-69
2024/03/04 10:57:28;;;;;;;12.20;8.60;;;;;;;11.70;48.46;100794.29;107878;1255;62271;-68
2024/03/04 11:00:17;;;;;;;11.20;8.10;;;;;;;11.76;48.13;100788.17;107964;1257;73706;-67
2024/03/04 11:03:09;;;;;;;10.90;8.00;;;;;;;11.78;47.73;100785.90;107750;1257;74942;-68
2024/03/04 11:05:43;;;;;;;14.00;8.60;;;;;;;11.78;47.47;100785.30;107941;1256;74866;-67
2024/03/04 11:08:19;;;;;;;12.40;8.80;;;;;;;11.76;47.17;100788.23;107976;1254;60984;-68
2024/03/04 11:10:51;;;;;;;11.20;7.70;;;;;;;11.74;47.38;100784.89;107891;1254;61226;-70
2024/03/04 11:13:41;;;;;;;11.50;8.00;;;;;;;11.74;47.37;100788.42;108038;1254;75004;-68
2024/03/04 11:16:16;;;;;;;12.40;8.40;;;;;;;11.72;47.18;100789.48;107781;1254;73527;-69
2024/03/04 11:18:47;;;;;;;11.20;8.00;;;;;;;11.72;47.48;100791.31;107982;1254;74700;-68